sensor_id;sensor_type;location;lat;lon;timestamp;P1;durP1;ratioP1;P2;durP2;ratioP2
8482;SDS011;4278;42.668;23.312;2023-06-10T00:01:43;12.60;;;8.55;;
8482;SDS011;4278;42.668;23.312;2023-06-10T00:04:12;13.98;;;8.82;;
8482;SDS011;4278;42.668;23.312;2023-06-10T00:06:41;11.38;;;7.80;;
8482;SDS011;4278;42.668;23.312;2023-06-10T00:09:09;9.68;;;7.50;;
8482;SDS011;4278;42.668;23.312;2023-06-10T00:11:36;10.20;;;7.00;;
8482;SDS011;4278;42.668;23.312;2023-06-10T00:14:03;9.82;;;7.43;;
8482;SDS011;4278;42.668;23.312;2023-06-10T00:16:30;12.15;;;7.45;;
8482;SDS011;4278;42.668;23.312;2023-06-10T00:18:57;9.93;;;7.55;;
8482;SDS011;4278;42.668;23.312;2023-06-10T00:21:26;12.02;;;8.23;;
8482;SDS011;4278;42.668;23.312;2023-06-10T00:23:54;10.93;;;8.27;;
8482;SDS011;4278;42.668;23.312;2023-06-10T00:26:21;10.82;;;8.75;;
8482;SDS011;4278;42.668;23.312;2023-06-10T00:28:48;10.77;;;8.05;;
8482;SDS011;4278;42.668;23.312;2023-06-10T00:31:15;10.05;;;7.97;;
8482;SDS011;4278;42.668;23.312;2023-06-10T00:33:42;9.18;;;7.13;;
8482;SDS011;4278;42.668;23.312;2023-06-10T00:36:09;7.85;;;6.53;;
8482;SDS011;4278;42.668;23.312;2023-06-10T00:38:36;7.65;;;6.30;;
8482;SDS011;4278;42.668;23.312;2023-06-10T00:41:04;9.13;;;6.70;;
8482;SDS011;4278;42.668;23.312;2023-06-10T00:43:31;7.72;;;6.25;;
8482;SDS011;4278;42.668;23.312;2023-06-10T00:45:58;11.30;;;6.10;;
8482;SDS011;4278;42.668;23.312;2023-06-10T00:48:25;10.05;;;6.82;;
8482;SDS011;4278;42.668;23.312;2023-06-10T00:50:52;8.60;;;7.00;;
8482;SDS011;4278;42.668;23.312;2023-06-10T00:53:19;6.90;;;6.20;;
8482;SDS011;4278;42.668;23.312;2023-06-10T00:55:47;9.60;;;6.15;;
8482;SDS011;4278;42.668;23.312;2023-06-10T00:58:16;7.95;;;6.57;;
8482;SDS011;4278;42.668;23.312;2023-06-10T01:00:43;6.95;;;5.97;;
8482;SDS011;4278;42.668;23.312;2023-06-10T01:03:11;10.40;;;6.13;;
8482;SDS011;4278;42.668;23.312;2023-06-10T01:05:38;9.82;;;6.32;;
8482;SDS011;4278;42.668;23.312;2023-06-10T01:08:07;8.63;;;6.25;;
8482;SDS011;4278;42.668;23.312;2023-06-10T01:10:41;8.40;;;6.47;;
8482;SDS011;4278;42.668;23.312;2023-06-10T01:13:13;8.75;;;6.35;;
8482;SDS011;4278;42.668;23.312;2023-06-10T01:15:43;8.98;;;6.88;;
8482;SDS011;4278;42.668;23.312;2023-06-10T01:18:10;7.85;;;6.18;;
8482;SDS011;4278;42.668;23.312;2023-06-10T01:20:40;8.05;;;6.40;;
8482;SDS011;4278;42.668;23.312;2023-06-10T01:23:09;12.93;;;7.00;;
8482;SDS011;4278;42.668;23.312;2023-06-10T01:25:38;12.55;;;7.03;;
8482;SDS011;4278;42.668;23.312;2023-06-10T01:28:10;8.40;;;6.95;;
8482;SDS011;4278;42.668;23.312;2023-06-10T01:30:42;9.10;;;7.13;;
8482;SDS011;4278;42.668;23.312;2023-06-10T01:33:15;8.73;;;6.97;;
8482;SDS011;4278;42.668;23.312;2023-06-10T01:35:45;9.25;;;6.78;;
8482;SDS011;4278;42.668;23.312;2023-06-10T01:38:15;7.90;;;6.60;;
8482;SDS011;4278;42.668;23.312;2023-06-10T01:40:43;8.45;;;6.70;;
8482;SDS011;4278;42.668;23.312;2023-06-10T01:43:12;11.90;;;7.10;;
8482;SDS011;4278;42.668;23.312;2023-06-10T01:45:39;7.68;;;6.88;;
8482;SDS011;4278;42.668;23.312;2023-06-10T01:48:06;11.40;;;7.45;;
8482;SDS011;4278;42.668;23.312;2023-06-10T01:50:33;11.00;;;6.95;;
8482;SDS011;4278;42.668;23.312;2023-06-10T01:52:59;13.98;;;7.38;;
8482;SDS011;4278;42.668;23.312;2023-06-10T01:58:13;9.75;;;7.05;;
8482;SDS011;4278;42.668;23.312;2023-06-10T02:00:40;11.38;;;7.22;;
8482;SDS011;4278;42.668;23.312;2023-06-10T02:03:07;10.82;;;7.50;;
8482;SDS011;4278;42.668;23.312;2023-06-10T02:05:34;8.93;;;6.57;;
8482;SDS011;4278;42.668;23.312;2023-06-10T02:08:00;8.40;;;6.13;;
8482;SDS011;4278;42.668;23.312;2023-06-10T02:10:27;8.38;;;6.57;;
8482;SDS011;4278;42.668;23.312;2023-06-10T02:12:55;9.65;;;7.28;;
8482;SDS011;4278;42.668;23.312;2023-06-10T02:15:23;10.75;;;6.53;;
8482;SDS011;4278;42.668;23.312;2023-06-10T02:17:50;9.25;;;7.00;;
8482;SDS011;4278;42.668;23.312;2023-06-10T02:20:17;10.18;;;6.63;;
8482;SDS011;4278;42.668;23.312;2023-06-10T02:22:44;8.73;;;6.55;;
8482;SDS011;4278;42.668;23.312;2023-06-10T02:25:10;11.57;;;7.00;;
8482;SDS011;4278;42.668;23.312;2023-06-10T02:27:37;8.68;;;6.80;;
8482;SDS011;4278;42.668;23.312;2023-06-10T02:30:06;9.30;;;6.47;;
8482;SDS011;4278;42.668;23.312;2023-06-10T02:32:35;7.38;;;6.13;;
8482;SDS011;4278;42.668;23.312;2023-06-10T02:35:02;8.02;;;6.47;;
8482;SDS011;4278;42.668;23.312;2023-06-10T02:37:29;8.80;;;6.43;;
8482;SDS011;4278;42.668;23.312;2023-06-10T02:39:56;11.55;;;6.90;;
8482;SDS011;4278;42.668;23.312;2023-06-10T02:42:23;7.63;;;5.80;;
8482;SDS011;4278;42.668;23.312;2023-06-10T02:44:49;7.72;;;6.60;;
8482;SDS011;4278;42.668;23.312;2023-06-10T02:47:17;9.30;;;6.70;;
8482;SDS011;4278;42.668;23.312;2023-06-10T02:49:44;10.80;;;7.82;;
8482;SDS011;4278;42.668;23.312;2023-06-10T02:52:11;11.05;;;6.88;;
8482;SDS011;4278;42.668;23.312;2023-06-10T02:54:38;12.38;;;7.38;;
8482;SDS011;4278;42.668;23.312;2023-06-10T02:57:05;9.43;;;6.63;;
8482;SDS011;4278;42.668;23.312;2023-06-10T02:59:32;16.13;;;7.38;;
8482;SDS011;4278;42.668;23.312;2023-06-10T03:02:00;10.82;;;7.60;;
8482;SDS011;4278;42.668;23.312;2023-06-10T03:04:28;10.13;;;7.80;;
8482;SDS011;4278;42.668;23.312;2023-06-10T03:06:55;9.70;;;7.40;;
8482;SDS011;4278;42.668;23.312;2023-06-10T03:09:22;11.07;;;7.78;;
8482;SDS011;4278;42.668;23.312;2023-06-10T03:11:49;12.27;;;8.35;;
8482;SDS011;4278;42.668;23.312;2023-06-10T03:14:16;8.50;;;7.40;;
8482;SDS011;4278;42.668;23.312;2023-06-10T03:16:43;8.77;;;7.63;;
8482;SDS011;4278;42.668;23.312;2023-06-10T03:19:10;8.85;;;7.53;;
8482;SDS011;4278;42.668;23.312;2023-06-10T03:21:39;10.55;;;7.28;;
8482;SDS011;4278;42.668;23.312;2023-06-10T03:24:06;9.10;;;7.38;;
8482;SDS011;4278;42.668;23.312;2023-06-10T03:26:33;9.13;;;7.35;;
8482;SDS011;4278;42.668;23.312;2023-06-10T03:29:00;12.50;;;7.55;;
8482;SDS011;4278;42.668;23.312;2023-06-10T03:31:26;12.02;;;7.88;;
8482;SDS011;4278;42.668;23.312;2023-06-10T03:33:54;10.05;;;7.10;;
8482;SDS011;4278;42.668;23.312;2023-06-10T03:36:21;8.10;;;7.20;;
8482;SDS011;4278;42.668;23.312;2023-06-10T03:38:50;10.57;;;7.45;;
8482;SDS011;4278;42.668;23.312;2023-06-10T03:41:18;11.50;;;7.40;;
8482;SDS011;4278;42.668;23.312;2023-06-10T03:43:46;11.00;;;7.47;;
8482;SDS011;4278;42.668;23.312;2023-06-10T03:46:13;12.00;;;7.45;;
8482;SDS011;4278;42.668;23.312;2023-06-10T03:48:40;12.07;;;8.00;;
8482;SDS011;4278;42.668;23.312;2023-06-10T03:51:07;10.52;;;7.15;;
8482;SDS011;4278;42.668;23.312;2023-06-10T03:53:34;11.20;;;7.78;;
8482;SDS011;4278;42.668;23.312;2023-06-10T03:56:02;9.63;;;7.63;;
8482;SDS011;4278;42.668;23.312;2023-06-10T03:58:29;8.95;;;7.45;;
8482;SDS011;4278;42.668;23.312;2023-06-10T04:00:56;10.60;;;7.90;;
8482;SDS011;4278;42.668;23.312;2023-06-10T04:03:23;10.38;;;7.70;;
8482;SDS011;4278;42.668;23.312;2023-06-10T04:05:49;10.35;;;7.85;;
8482;SDS011;4278;42.668;23.312;2023-06-10T04:08:17;8.82;;;7.03;;
8482;SDS011;4278;42.668;23.312;2023-06-10T04:10:44;10.70;;;8.57;;
8482;SDS011;4278;42.668;23.312;2023-06-10T04:13:12;9.07;;;6.85;;
8482;SDS011;4278;42.668;23.312;2023-06-10T04:15:39;8.00;;;7.10;;
8482;SDS011;4278;42.668;23.312;2023-06-10T04:18:06;40.17;;;25.67;;
8482;SDS011;4278;42.668;23.312;2023-06-10T04:20:33;10.43;;;8.20;;
8482;SDS011;4278;42.668;23.312;2023-06-10T04:23:00;10.90;;;7.88;;
8482;SDS011;4278;42.668;23.312;2023-06-10T04:25:27;10.55;;;7.95;;
8482;SDS011;4278;42.668;23.312;2023-06-10T04:27:53;11.23;;;8.55;;
8482;SDS011;4278;42.668;23.312;2023-06-10T04:30:22;11.63;;;8.52;;
8482;SDS011;4278;42.668;23.312;2023-06-10T04:32:49;12.95;;;9.40;;
8482;SDS011;4278;42.668;23.312;2023-06-10T04:35:15;14.00;;;9.40;;
8482;SDS011;4278;42.668;23.312;2023-06-10T04:37:42;13.93;;;10.85;;
8482;SDS011;4278;42.668;23.312;2023-06-10T04:40:09;11.25;;;9.27;;
8482;SDS011;4278;42.668;23.312;2023-06-10T04:42:37;12.10;;;9.80;;
8482;SDS011;4278;42.668;23.312;2023-06-10T04:45:04;13.55;;;9.82;;
8482;SDS011;4278;42.668;23.312;2023-06-10T04:47:33;12.90;;;9.18;;
8482;SDS011;4278;42.668;23.312;2023-06-10T04:50:00;12.90;;;9.98;;
8482;SDS011;4278;42.668;23.312;2023-06-10T04:52:28;16.98;;;10.77;;
8482;SDS011;4278;42.668;23.312;2023-06-10T04:54:55;16.85;;;9.75;;
8482;SDS011;4278;42.668;23.312;2023-06-10T04:57:23;16.95;;;9.57;;
8482;SDS011;4278;42.668;23.312;2023-06-10T04:59:50;12.70;;;10.40;;
8482;SDS011;4278;42.668;23.312;2023-06-10T05:02:16;12.75;;;9.70;;
8482;SDS011;4278;42.668;23.312;2023-06-10T05:04:45;11.82;;;10.00;;
8482;SDS011;4278;42.668;23.312;2023-06-10T05:07:11;15.45;;;10.00;;
8482;SDS011;4278;42.668;23.312;2023-06-10T05:09:38;15.35;;;9.68;;
8482;SDS011;4278;42.668;23.312;2023-06-10T05:12:05;15.25;;;9.82;;
8482;SDS011;4278;42.668;23.312;2023-06-10T05:14:34;13.63;;;9.80;;
8482;SDS011;4278;42.668;23.312;2023-06-10T05:17:01;12.50;;;9.75;;
8482;SDS011;4278;42.668;23.312;2023-06-10T05:19:30;13.27;;;10.05;;
8482;SDS011;4278;42.668;23.312;2023-06-10T05:21:58;13.85;;;10.35;;
8482;SDS011;4278;42.668;23.312;2023-06-10T05:24:25;11.90;;;10.00;;
8482;SDS011;4278;42.668;23.312;2023-06-10T05:26:52;15.52;;;9.93;;
8482;SDS011;4278;42.668;23.312;2023-06-10T05:29:19;12.05;;;9.90;;
8482;SDS011;4278;42.668;23.312;2023-06-10T05:31:46;11.23;;;9.60;;
8482;SDS011;4278;42.668;23.312;2023-06-10T05:34:12;12.00;;;10.68;;
8482;SDS011;4278;42.668;23.312;2023-06-10T05:36:39;14.73;;;10.18;;
8482;SDS011;4278;42.668;23.312;2023-06-10T05:39:08;11.48;;;9.65;;
8482;SDS011;4278;42.668;23.312;2023-06-10T05:41:35;14.23;;;10.18;;
8482;SDS011;4278;42.668;23.312;2023-06-10T05:44:02;12.55;;;9.77;;
8482;SDS011;4278;42.668;23.312;2023-06-10T05:46:29;11.98;;;9.68;;
8482;SDS011;4278;42.668;23.312;2023-06-10T05:48:56;13.40;;;9.25;;
8482;SDS011;4278;42.668;23.312;2023-06-10T05:51:23;13.60;;;10.10;;
8482;SDS011;4278;42.668;23.312;2023-06-10T05:53:51;12.27;;;9.50;;
8482;SDS011;4278;42.668;23.312;2023-06-10T05:56:19;13.13;;;10.25;;
8482;SDS011;4278;42.668;23.312;2023-06-10T05:58:47;12.80;;;9.88;;
8482;SDS011;4278;42.668;23.312;2023-06-10T06:01:14;10.95;;;8.75;;
8482;SDS011;4278;42.668;23.312;2023-06-10T06:03:41;9.82;;;8.82;;
8482;SDS011;4278;42.668;23.312;2023-06-10T06:06:08;12.63;;;8.63;;
8482;SDS011;4278;42.668;23.312;2023-06-10T06:08:35;11.20;;;9.40;;
8482;SDS011;4278;42.668;23.312;2023-06-10T06:11:02;12.35;;;9.02;;
8482;SDS011;4278;42.668;23.312;2023-06-10T06:13:30;11.93;;;8.55;;
8482;SDS011;4278;42.668;23.312;2023-06-10T06:15:57;11.52;;;9.23;;
8482;SDS011;4278;42.668;23.312;2023-06-10T06:18:24;10.40;;;9.10;;
8482;SDS011;4278;42.668;23.312;2023-06-10T06:20:51;9.18;;;8.10;;
8482;SDS011;4278;42.668;23.312;2023-06-10T06:23:18;16.27;;;9.10;;
8482;SDS011;4278;42.668;23.312;2023-06-10T06:25:44;13.23;;;7.82;;
8482;SDS011;4278;42.668;23.312;2023-06-10T06:28:11;13.80;;;9.20;;
8482;SDS011;4278;42.668;23.312;2023-06-10T06:30:40;11.65;;;6.18;;
8482;SDS011;4278;42.668;23.312;2023-06-10T06:33:06;11.18;;;6.60;;
8482;SDS011;4278;42.668;23.312;2023-06-10T06:35:33;10.38;;;6.18;;
8482;SDS011;4278;42.668;23.312;2023-06-10T06:38:00;10.07;;;6.95;;
8482;SDS011;4278;42.668;23.312;2023-06-10T06:40:29;8.52;;;7.15;;
8482;SDS011;4278;42.668;23.312;2023-06-10T06:42:56;9.35;;;6.55;;
8482;SDS011;4278;42.668;23.312;2023-06-10T06:45:23;8.10;;;6.03;;
8482;SDS011;4278;42.668;23.312;2023-06-10T06:47:51;10.02;;;5.85;;
8482;SDS011;4278;42.668;23.312;2023-06-10T06:50:18;11.77;;;6.45;;
8482;SDS011;4278;42.668;23.312;2023-06-10T06:52:44;10.18;;;6.00;;
8482;SDS011;4278;42.668;23.312;2023-06-10T06:55:11;11.18;;;6.07;;
8482;SDS011;4278;42.668;23.312;2023-06-10T06:57:38;13.40;;;8.68;;
8482;SDS011;4278;42.668;23.312;2023-06-10T07:00:05;7.97;;;6.13;;
8482;SDS011;4278;42.668;23.312;2023-06-10T07:02:34;7.60;;;6.35;;
8482;SDS011;4278;42.668;23.312;2023-06-10T07:05:02;8.48;;;6.47;;
8482;SDS011;4278;42.668;23.312;2023-06-10T07:07:29;12.25;;;7.93;;
8482;SDS011;4278;42.668;23.312;2023-06-10T07:09:56;12.73;;;6.65;;
8482;SDS011;4278;42.668;23.312;2023-06-10T07:12:23;7.43;;;5.55;;
8482;SDS011;4278;42.668;23.312;2023-06-10T07:14:50;8.35;;;5.38;;
8482;SDS011;4278;42.668;23.312;2023-06-10T07:17:17;9.98;;;5.68;;
8482;SDS011;4278;42.668;23.312;2023-06-10T07:19:44;11.82;;;7.72;;
8482;SDS011;4278;42.668;23.312;2023-06-10T07:22:12;11.27;;;6.55;;
8482;SDS011;4278;42.668;23.312;2023-06-10T07:24:40;9.25;;;5.93;;
8482;SDS011;4278;42.668;23.312;2023-06-10T07:27:07;7.80;;;5.53;;
8482;SDS011;4278;42.668;23.312;2023-06-10T07:29:34;7.80;;;4.82;;
8482;SDS011;4278;42.668;23.312;2023-06-10T07:32:01;7.13;;;5.03;;
8482;SDS011;4278;42.668;23.312;2023-06-10T07:34:29;7.25;;;5.22;;
8482;SDS011;4278;42.668;23.312;2023-06-10T07:36:56;9.55;;;5.32;;
8482;SDS011;4278;42.668;23.312;2023-06-10T07:39:24;6.70;;;4.93;;
8482;SDS011;4278;42.668;23.312;2023-06-10T07:41:51;7.97;;;5.82;;
8482;SDS011;4278;42.668;23.312;2023-06-10T07:44:19;9.93;;;7.00;;
8482;SDS011;4278;42.668;23.312;2023-06-10T07:46:46;8.50;;;6.90;;
8482;SDS011;4278;42.668;23.312;2023-06-10T07:49:13;7.03;;;5.22;;
8482;SDS011;4278;42.668;23.312;2023-06-10T07:51:40;5.15;;;4.43;;
8482;SDS011;4278;42.668;23.312;2023-06-10T07:54:07;8.73;;;5.22;;
8482;SDS011;4278;42.668;23.312;2023-06-10T07:56:35;5.82;;;4.93;;
8482;SDS011;4278;42.668;23.312;2023-06-10T07:59:02;10.68;;;5.28;;
8482;SDS011;4278;42.668;23.312;2023-06-10T08:01:29;8.35;;;5.05;;
8482;SDS011;4278;42.668;23.312;2023-06-10T08:03:58;15.38;;;5.18;;
8482;SDS011;4278;42.668;23.312;2023-06-10T08:06:25;5.47;;;4.05;;
8482;SDS011;4278;42.668;23.312;2023-06-10T08:08:52;7.13;;;4.72;;
8482;SDS011;4278;42.668;23.312;2023-06-10T08:11:20;8.55;;;5.03;;
8482;SDS011;4278;42.668;23.312;2023-06-10T08:13:49;10.38;;;4.45;;
8482;SDS011;4278;42.668;23.312;2023-06-10T08:16:16;5.68;;;4.15;;
8482;SDS011;4278;42.668;23.312;2023-06-10T08:18:43;6.05;;;3.95;;
8482;SDS011;4278;42.668;23.312;2023-06-10T08:21:09;6.97;;;3.83;;
8482;SDS011;4278;42.668;23.312;2023-06-10T08:23:36;5.15;;;4.00;;
8482;SDS011;4278;42.668;23.312;2023-06-10T08:26:04;5.50;;;4.13;;
8482;SDS011;4278;42.668;23.312;2023-06-10T08:28:31;8.05;;;4.18;;
8482;SDS011;4278;42.668;23.312;2023-06-10T08:31:00;4.70;;;3.85;;
8482;SDS011;4278;42.668;23.312;2023-06-10T08:33:26;6.90;;;3.67;;
8482;SDS011;4278;42.668;23.312;2023-06-10T08:35:53;5.10;;;3.40;;
8482;SDS011;4278;42.668;23.312;2023-06-10T08:38:20;5.55;;;3.53;;
8482;SDS011;4278;42.668;23.312;2023-06-10T08:40:47;6.28;;;3.30;;
8482;SDS011;4278;42.668;23.312;2023-06-10T08:43:17;6.78;;;3.55;;
8482;SDS011;4278;42.668;23.312;2023-06-10T08:45:49;6.18;;;3.78;;
8482;SDS011;4278;42.668;23.312;2023-06-10T08:48:22;4.13;;;3.22;;
8482;SDS011;4278;42.668;23.312;2023-06-10T08:50:49;4.10;;;3.40;;
8482;SDS011;4278;42.668;23.312;2023-06-10T08:53:18;5.15;;;4.30;;
8482;SDS011;4278;42.668;23.312;2023-06-10T08:55:46;5.55;;;3.50;;
8482;SDS011;4278;42.668;23.312;2023-06-10T08:58:18;6.25;;;3.92;;
8482;SDS011;4278;42.668;23.312;2023-06-10T09:00:46;5.68;;;3.90;;
8482;SDS011;4278;42.668;23.312;2023-06-10T09:03:13;5.82;;;4.22;;
8482;SDS011;4278;42.668;23.312;2023-06-10T09:05:41;5.63;;;3.53;;
8482;SDS011;4278;42.668;23.312;2023-06-10T09:08:09;4.78;;;3.53;;
8482;SDS011;4278;42.668;23.312;2023-06-10T09:10:36;4.22;;;3.33;;
8482;SDS011;4278;42.668;23.312;2023-06-10T09:13:02;5.15;;;3.92;;
8482;SDS011;4278;42.668;23.312;2023-06-10T09:15:29;5.25;;;3.88;;
8482;SDS011;4278;42.668;23.312;2023-06-10T09:17:57;4.32;;;3.55;;
8482;SDS011;4278;42.668;23.312;2023-06-10T09:20:24;3.97;;;3.60;;
8482;SDS011;4278;42.668;23.312;2023-06-10T09:22:52;4.50;;;3.28;;
8482;SDS011;4278;42.668;23.312;2023-06-10T09:25:20;4.15;;;3.38;;
8482;SDS011;4278;42.668;23.312;2023-06-10T09:28:01;5.97;;;3.00;;
8482;SDS011;4278;42.668;23.312;2023-06-10T09:30:29;5.45;;;3.70;;
8482;SDS011;4278;42.668;23.312;2023-06-10T09:32:58;3.95;;;3.58;;
8482;SDS011;4278;42.668;23.312;2023-06-10T09:35:26;5.63;;;3.83;;
8482;SDS011;4278;42.668;23.312;2023-06-10T09:37:55;6.53;;;3.97;;
8482;SDS011;4278;42.668;23.312;2023-06-10T09:40:23;6.00;;;4.07;;
8482;SDS011;4278;42.668;23.312;2023-06-10T09:42:52;3.90;;;3.50;;
8482;SDS011;4278;42.668;23.312;2023-06-10T09:45:21;4.60;;;3.72;;
8482;SDS011;4278;42.668;23.312;2023-06-10T09:47:51;4.78;;;4.03;;
8482;SDS011;4278;42.668;23.312;2023-06-10T09:50:18;4.30;;;3.47;;
8482;SDS011;4278;42.668;23.312;2023-06-10T09:52:45;7.57;;;3.92;;
8482;SDS011;4278;42.668;23.312;2023-06-10T09:55:14;5.32;;;3.35;;
8482;SDS011;4278;42.668;23.312;2023-06-10T09:57:42;3.83;;;2.97;;
8482;SDS011;4278;42.668;23.312;2023-06-10T10:00:13;3.33;;;3.00;;
8482;SDS011;4278;42.668;23.312;2023-06-10T10:02:44;3.92;;;2.72;;
8482;SDS011;4278;42.668;23.312;2023-06-10T10:05:12;4.10;;;2.58;;
8482;SDS011;4278;42.668;23.312;2023-06-10T10:07:40;2.92;;;2.63;;
8482;SDS011;4278;42.668;23.312;2023-06-10T10:10:07;4.85;;;3.65;;
8482;SDS011;4278;42.668;23.312;2023-06-10T10:12:36;3.00;;;2.65;;
8482;SDS011;4278;42.668;23.312;2023-06-10T10:15:05;3.83;;;2.80;;
8482;SDS011;4278;42.668;23.312;2023-06-10T10:17:34;3.90;;;2.90;;
8482;SDS011;4278;42.668;23.312;2023-06-10T10:20:04;3.20;;;2.83;;
8482;SDS011;4278;42.668;23.312;2023-06-10T10:22:35;4.55;;;2.92;;
8482;SDS011;4278;42.668;23.312;2023-06-10T10:25:05;4.03;;;3.42;;
8482;SDS011;4278;42.668;23.312;2023-06-10T10:27:40;4.78;;;3.30;;
8482;SDS011;4278;42.668;23.312;2023-06-10T10:30:14;3.72;;;3.25;;
8482;SDS011;4278;42.668;23.312;2023-06-10T10:32:43;6.57;;;3.60;;
8482;SDS011;4278;42.668;23.312;2023-06-10T10:35:19;5.47;;;3.75;;
8482;SDS011;4278;42.668;23.312;2023-06-10T10:37:48;5.18;;;3.53;;
8482;SDS011;4278;42.668;23.312;2023-06-10T10:40:15;3.92;;;3.53;;
8482;SDS011;4278;42.668;23.312;2023-06-10T10:42:44;3.45;;;2.95;;
8482;SDS011;4278;42.668;23.312;2023-06-10T10:45:11;3.72;;;3.00;;
8482;SDS011;4278;42.668;23.312;2023-06-10T10:47:39;4.55;;;3.42;;
8482;SDS011;4278;42.668;23.312;2023-06-10T10:50:13;3.47;;;2.95;;
8482;SDS011;4278;42.668;23.312;2023-06-10T10:52:46;3.40;;;2.72;;
8482;SDS011;4278;42.668;23.312;2023-06-10T10:55:18;4.18;;;3.17;;
8482;SDS011;4278;42.668;23.312;2023-06-10T10:57:49;6.68;;;3.55;;
8482;SDS011;4278;42.668;23.312;2023-06-10T11:00:24;4.45;;;2.83;;
8482;SDS011;4278;42.668;23.312;2023-06-10T11:02:57;5.22;;;3.35;;
8482;SDS011;4278;42.668;23.312;2023-06-10T11:05:37;4.45;;;3.20;;
8482;SDS011;4278;42.668;23.312;2023-06-10T11:08:07;4.25;;;2.88;;
8482;SDS011;4278;42.668;23.312;2023-06-10T11:10:35;5.53;;;3.05;;
8482;SDS011;4278;42.668;23.312;2023-06-10T11:13:07;5.50;;;3.10;;
8482;SDS011;4278;42.668;23.312;2023-06-10T11:15:39;4.30;;;3.28;;
8482;SDS011;4278;42.668;23.312;2023-06-10T11:18:10;6.25;;;3.38;;
8482;SDS011;4278;42.668;23.312;2023-06-10T11:20:41;4.50;;;3.35;;
8482;SDS011;4278;42.668;23.312;2023-06-10T11:23:10;4.57;;;3.50;;
8482;SDS011;4278;42.668;23.312;2023-06-10T11:25:38;3.97;;;3.38;;
8482;SDS011;4278;42.668;23.312;2023-06-10T11:28:14;4.45;;;3.25;;
8482;SDS011;4278;42.668;23.312;2023-06-10T11:30:44;3.55;;;3.20;;
8482;SDS011;4278;42.668;23.312;2023-06-10T11:33:14;9.32;;;3.55;;
8482;SDS011;4278;42.668;23.312;2023-06-10T11:35:41;4.05;;;3.45;;
8482;SDS011;4278;42.668;23.312;2023-06-10T11:38:09;4.35;;;3.00;;
8482;SDS011;4278;42.668;23.312;2023-06-10T11:40:36;5.03;;;3.13;;
8482;SDS011;4278;42.668;23.312;2023-06-10T11:43:03;3.95;;;3.55;;
8482;SDS011;4278;42.668;23.312;2023-06-10T11:45:32;4.53;;;4.03;;
8482;SDS011;4278;42.668;23.312;2023-06-10T11:47:59;6.03;;;3.80;;
8482;SDS011;4278;42.668;23.312;2023-06-10T11:50:30;4.65;;;3.38;;
8482;SDS011;4278;42.668;23.312;2023-06-10T11:52:57;7.80;;;3.50;;
8482;SDS011;4278;42.668;23.312;2023-06-10T11:55:24;4.38;;;3.30;;
8482;SDS011;4278;42.668;23.312;2023-06-10T11:57:52;4.80;;;3.65;;
8482;SDS011;4278;42.668;23.312;2023-06-10T12:00:22;5.97;;;3.60;;
8482;SDS011;4278;42.668;23.312;2023-06-10T12:02:56;7.70;;;5.07;;
8482;SDS011;4278;42.668;23.312;2023-06-10T12:05:23;5.57;;;3.83;;
8482;SDS011;4278;42.668;23.312;2023-06-10T12:10:39;8.40;;;3.80;;
8482;SDS011;4278;42.668;23.312;2023-06-10T12:13:07;5.72;;;3.60;;
8482;SDS011;4278;42.668;23.312;2023-06-10T12:15:34;4.05;;;3.40;;
8482;SDS011;4278;42.668;23.312;2023-06-10T12:18:02;7.40;;;4.10;;
8482;SDS011;4278;42.668;23.312;2023-06-10T12:20:30;7.45;;;3.30;;
8482;SDS011;4278;42.668;23.312;2023-06-10T12:22:59;5.20;;;3.67;;
8482;SDS011;4278;42.668;23.312;2023-06-10T12:25:27;3.80;;;3.40;;
8482;SDS011;4278;42.668;23.312;2023-06-10T12:27:55;3.92;;;3.53;;
8482;SDS011;4278;42.668;23.312;2023-06-10T12:30:24;5.45;;;3.28;;
8482;SDS011;4278;42.668;23.312;2023-06-10T12:32:52;4.53;;;3.42;;
8482;SDS011;4278;42.668;23.312;2023-06-10T12:35:22;5.15;;;2.92;;
8482;SDS011;4278;42.668;23.312;2023-06-10T12:37:54;4.10;;;3.20;;
8482;SDS011;4278;42.668;23.312;2023-06-10T12:40:25;5.47;;;3.55;;
8482;SDS011;4278;42.668;23.312;2023-06-10T12:42:53;5.88;;;3.17;;
8482;SDS011;4278;42.668;23.312;2023-06-10T12:45:26;5.93;;;3.15;;
8482;SDS011;4278;42.668;23.312;2023-06-10T12:48:03;4.18;;;3.10;;
8482;SDS011;4278;42.668;23.312;2023-06-10T12:50:32;6.75;;;3.15;;
8482;SDS011;4278;42.668;23.312;2023-06-10T12:52:59;4.03;;;3.13;;
8482;SDS011;4278;42.668;23.312;2023-06-10T12:55:26;4.28;;;2.83;;
8482;SDS011;4278;42.668;23.312;2023-06-10T12:57:53;3.55;;;3.05;;
8482;SDS011;4278;42.668;23.312;2023-06-10T13:00:21;3.28;;;2.90;;
8482;SDS011;4278;42.668;23.312;2023-06-10T13:02:50;4.15;;;3.45;;
8482;SDS011;4278;42.668;23.312;2023-06-10T13:05:17;4.18;;;3.33;;
8482;SDS011;4278;42.668;23.312;2023-06-10T13:07:46;5.85;;;3.55;;
8482;SDS011;4278;42.668;23.312;2023-06-10T13:10:14;6.28;;;3.30;;
8482;SDS011;4278;42.668;23.312;2023-06-10T13:12:41;5.70;;;3.13;;
8482;SDS011;4278;42.668;23.312;2023-06-10T13:15:09;3.92;;;3.00;;
8482;SDS011;4278;42.668;23.312;2023-06-10T13:17:36;3.97;;;2.80;;
8482;SDS011;4278;42.668;23.312;2023-06-10T13:20:04;5.72;;;3.08;;
8482;SDS011;4278;42.668;23.312;2023-06-10T13:22:33;3.20;;;2.90;;
8482;SDS011;4278;42.668;23.312;2023-06-10T13:25:03;3.58;;;3.00;;
8482;SDS011;4278;42.668;23.312;2023-06-10T13:27:32;5.22;;;3.40;;
8482;SDS011;4278;42.668;23.312;2023-06-10T13:29:59;6.78;;;3.65;;
8482;SDS011;4278;42.668;23.312;2023-06-10T13:32:26;4.93;;;3.50;;
8482;SDS011;4278;42.668;23.312;2023-06-10T13:34:53;4.90;;;3.30;;
8482;SDS011;4278;42.668;23.312;2023-06-10T13:37:20;3.47;;;3.10;;
8482;SDS011;4278;42.668;23.312;2023-06-10T13:39:47;8.93;;;4.13;;
8482;SDS011;4278;42.668;23.312;2023-06-10T13:42:17;3.85;;;3.35;;
8482;SDS011;4278;42.668;23.312;2023-06-10T13:44:44;8.85;;;3.92;;
8482;SDS011;4278;42.668;23.312;2023-06-10T13:47:12;5.97;;;3.88;;
8482;SDS011;4278;42.668;23.312;2023-06-10T13:49:39;5.07;;;3.88;;
8482;SDS011;4278;42.668;23.312;2023-06-10T13:52:06;5.05;;;3.75;;
8482;SDS011;4278;42.668;23.312;2023-06-10T13:54:34;5.35;;;3.88;;
8482;SDS011;4278;42.668;23.312;2023-06-10T13:57:02;4.78;;;3.67;;
8482;SDS011;4278;42.668;23.312;2023-06-10T13:59:30;6.25;;;3.92;;
8482;SDS011;4278;42.668;23.312;2023-06-10T14:01:57;4.35;;;3.78;;
8482;SDS011;4278;42.668;23.312;2023-06-10T14:04:25;5.68;;;3.78;;
8482;SDS011;4278;42.668;23.312;2023-06-10T14:06:52;6.53;;;3.88;;
8482;SDS011;4278;42.668;23.312;2023-06-10T14:09:19;4.30;;;3.38;;
8482;SDS011;4278;42.668;23.312;2023-06-10T14:11:46;4.32;;;3.30;;
8482;SDS011;4278;42.668;23.312;2023-06-10T14:14:13;5.78;;;3.83;;
8482;SDS011;4278;42.668;23.312;2023-06-10T14:16:41;6.10;;;4.15;;
8482;SDS011;4278;42.668;23.312;2023-06-10T14:19:08;6.50;;;3.83;;
8482;SDS011;4278;42.668;23.312;2023-06-10T14:21:35;5.50;;;3.70;;
8482;SDS011;4278;42.668;23.312;2023-06-10T14:24:03;7.47;;;3.38;;
8482;SDS011;4278;42.668;23.312;2023-06-10T14:26:30;5.60;;;3.53;;
8482;SDS011;4278;42.668;23.312;2023-06-10T14:28:58;4.47;;;3.67;;
8482;SDS011;4278;42.668;23.312;2023-06-10T14:31:24;6.15;;;3.90;;
8482;SDS011;4278;42.668;23.312;2023-06-10T14:33:53;4.18;;;3.65;;
8482;SDS011;4278;42.668;23.312;2023-06-10T14:36:19;8.10;;;4.10;;
8482;SDS011;4278;42.668;23.312;2023-06-10T14:38:46;7.47;;;3.92;;
8482;SDS011;4278;42.668;23.312;2023-06-10T14:41:13;7.30;;;3.80;;
8482;SDS011;4278;42.668;23.312;2023-06-10T14:43:40;5.97;;;3.15;;
8482;SDS011;4278;42.668;23.312;2023-06-10T14:46:07;4.70;;;3.72;;
8482;SDS011;4278;42.668;23.312;2023-06-10T14:48:34;5.35;;;3.65;;
8482;SDS011;4278;42.668;23.312;2023-06-10T14:51:02;5.35;;;3.80;;
8482;SDS011;4278;42.668;23.312;2023-06-10T14:53:29;4.15;;;3.53;;
8482;SDS011;4278;42.668;23.312;2023-06-10T14:55:56;5.05;;;3.97;;
8482;SDS011;4278;42.668;23.312;2023-06-10T14:58:23;7.43;;;3.47;;
8482;SDS011;4278;42.668;23.312;2023-06-10T15:00:50;4.68;;;3.42;;
8482;SDS011;4278;42.668;23.312;2023-06-10T15:03:17;4.25;;;3.10;;
8482;SDS011;4278;42.668;23.312;2023-06-10T15:05:43;6.30;;;3.25;;